Time;durP1;ratioP1;P1;durP2;ratioP2;P2;SDS_P1;SDS_P2;PMS_P1;PMS_P2;Temp;Humidity;BMP_temperature;BMP_pressure;BME280_temperature;BME280_humidity;BME280_pressure;Samples;Min_cycle;Max_cycle;Signal;HPM_P1;HPM_P2
2024/01/09 00:01:43;;;;;;;4.63;2.47;;;-2.70;99.90;;;;;;5084324;28;20039;-63
2024/01/09 00:04:09;;;;;;;5.13;2.35;;;-2.70;99.90;;;;;;5085269;28;20511;-63
2024/01/09 00:06:35;;;;;;;3.97;2.10;;;-2.70;99.90;;;;;;5081352;28;20039;-63
2024/01/09 00:09:02;;;;;;;5.75;3.10;;;-2.80;99.90;;;;;;5064065;28;20040;-63
2024/01/09 00:11:28;;;;;;;5.53;2.30;;;-2.70;99.90;;;;;;5083331;28;20046;-63
2024/01/09 00:13:54;;;;;;;4.78;2.30;;;-2.80;99.90;;;;;;5084632;28;20040;-63
2024/01/09 00:16:20;;;;;;;5.90;2.83;;;-2.80;99.90;;;;;;5079757;28;20877;-63
2024/01/09 00:18:53;;;;;;;5.05;2.53;;;-2.80;99.90;;;;;;5084838;28;20027;-63
2024/01/09 00:21:22;;;;;;;6.90;1.73;;;-2.80;99.90;;;;;;5084568;28;20050;-63
2024/01/09 00:23:48;;;;;;;2.67;1.58;;;-2.80;99.90;;;;;;5087025;28;20058;-63
2024/01/09 00:26:14;;;;;;;6.53;2.88;;;-2.80;99.90;;;;;;5083931;28;20039;-63
2024/01/09 00:28:40;;;;;;;5.40;2.50;;;-2.80;99.90;;;;;;5081355;28;20037;-63
2024/01/09 00:31:06;;;;;;;5.22;2.50;;;-2.80;99.90;;;;;;5086215;28;20035;-63
2024/01/09 00:33:34;;;;;;;5.10;2.40;;;-2.80;99.90;;;;;;5080397;28;20399;-63
2024/01/09 00:36:03;;;;;;;5.05;2.33;;;-2.90;99.90;;;;;;5081872;28;20031;-63
2024/01/09 00:38:29;;;;;;;5.13;2.20;;;-2.90;99.90;;;;;;5086065;28;20043;-63
2024/01/09 00:40:54;;;;;;;4.07;2.50;;;-2.90;99.90;;;;;;5082521;28;20067;-63
2024/01/09 00:43:20;;;;;;;6.20;2.70;;;-3.00;99.90;;;;;;5083277;28;20064;-63
2024/01/09 00:45:45;;;;;;;6.35;3.03;;;-3.00;99.90;;;;;;5079302;28;20085;-63
2024/01/09 00:48:11;;;;;;;3.50;2.35;;;-3.00;99.90;;;;;;5113562;27;20043;-63
2024/01/09 00:50:37;;;;;;;5.85;2.88;;;-3.10;99.90;;;;;;5078507;28;20089;-63
2024/01/09 00:53:04;;;;;;;4.85;2.65;;;-3.00;99.90;;;;;;5084519;28;20642;-63
2024/01/09 00:55:30;;;;;;;5.32;3.20;;;-3.10;99.90;;;;;;5083910;28;20036;-63
2024/01/09 00:57:55;;;;;;;4.68;2.45;;;-3.10;99.90;;;;;;5084606;28;20037;-63
2024/01/09 01:00:21;;;;;;;4.68;2.47;;;-3.00;99.90;;;;;;5119380;27;20048;-63
2024/01/09 01:02:47;;;;;;;4.85;2.05;;;-3.10;99.90;;;;;;5081910;28;20048;-63
2024/01/09 01:05:15;;;;;;;4.20;1.85;;;-3.10;99.90;;;;;;5078996;28;20041;-63
2024/01/09 01:07:41;;;;;;;4.80;2.08;;;-3.10;99.90;;;;;;5093592;27;20036;-63
2024/01/09 01:10:07;;;;;;;6.13;2.47;;;-3.10;99.90;;;;;;5082441;28;20046;-63
2024/01/09 01:12:32;;;;;;;4.13;2.20;;;-3.10;99.90;;;;;;5082341;27;20482;-63
2024/01/09 01:14:58;;;;;;;6.18;2.67;;;-3.20;99.90;;;;;;5083205;28;20043;-63
2024/01/09 01:17:24;;;;;;;5.65;3.25;;;-3.20;99.90;;;;;;5082652;28;20102;-63
2024/01/09 01:19:49;;;;;;;4.07;2.33;;;-3.20;99.90;;;;;;5078446;28;20038;-63
2024/01/09 01:22:15;;;;;;;5.13;2.75;;;-3.20;99.90;;;;;;5082406;28;20098;-63
2024/01/09 01:24:40;;;;;;;3.78;1.88;;;-3.20;99.90;;;;;;5114949;27;20040;-63
2024/01/09 01:27:06;;;;;;;6.53;2.60;;;-3.20;99.90;;;;;;5081918;28;20044;-63
2024/01/09 01:29:32;;;;;;;3.92;2.22;;;-3.20;99.90;;;;;;5084322;28;20417;-63
2024/01/09 01:31:57;;;;;;;3.05;2.03;;;-3.30;99.90;;;;;;5080132;28;20729;-63
2024/01/09 01:34:23;;;;;;;6.57;2.70;;;-3.30;99.90;;;;;;5081774;28;20054;-63
2024/01/09 01:36:49;;;;;;;5.05;1.80;;;-3.30;99.90;;;;;;5078599;28;20040;-63
2024/01/09 01:39:14;;;;;;;4.05;2.00;;;-3.20;99.90;;;;;;5084845;28;20063;-63
2024/01/09 01:41:41;;;;;;;3.53;1.80;;;-3.30;99.90;;;;;;5079315;28;20041;-63
2024/01/09 01:44:17;;;;;;;3.70;1.92;;;-3.30;99.90;;;;;;5078437;28;20043;-63
2024/01/09 01:46:45;;;;;;;6.43;2.75;;;-3.30;99.90;;;;;;5087927;28;20054;-63
2024/01/09 01:49:12;;;;;;;5.72;2.25;;;-3.30;99.90;;;;;;5110524;27;20822;-63
2024/01/09 01:51:38;;;;;;;3.65;2.13;;;-3.30;99.90;;;;;;5112002;27;20044;-63
2024/01/09 01:54:06;;;;;;;4.47;2.05;;;-3.30;99.90;;;;;;5079136;28;20363;-63
2024/01/09 01:56:32;;;;;;;5.03;2.13;;;-3.30;99.90;;;;;;5080678;28;20067;-63
2024/01/09 01:58:58;;;;;;;3.55;1.77;;;-3.30;99.90;;;;;;5079174;28;20075;-63
2024/01/09 02:01:25;;;;;;;3.03;1.75;;;-3.30;99.90;;;;;;5081274;28;20562;-63
2024/01/09 02:03:52;;;;;;;4.13;1.40;;;-3.30;99.90;;;;;;5064652;28;20067;-63
2024/01/09 02:06:18;;;;;;;7.93;1.95;;;-3.30;99.90;;;;;;5078566;28;20352;-63
2024/01/09 02:08:44;;;;;;;5.85;1.70;;;-3.30;99.90;;;;;;5081468;28;20069;-63
2024/01/09 02:11:10;;;;;;;3.15;2.15;;;-3.30;99.90;;;;;;5079575;28;20351;-63
2024/01/09 02:13:36;;;;;;;2.85;1.60;;;-3.30;99.90;;;;;;5082062;28;20092;-63
2024/01/09 02:16:02;;;;;;;3.10;2.15;;;-3.30;99.90;;;;;;5079306;28;20722;-63
2024/01/09 02:18:28;;;;;;;4.75;2.90;;;-3.40;99.90;;;;;;5084167;28;20489;-63
2024/01/09 02:20:54;;;;;;;6.18;2.70;;;-3.40;99.90;;;;;;5082560;28;20040;-63
2024/01/09 02:23:20;;;;;;;4.57;2.10;;;-3.30;99.90;;;;;;5075600;28;20044;-63
2024/01/09 02:25:46;;;;;;;7.38;2.25;;;-3.40;99.90;;;;;;5084519;28;20081;-63
2024/01/09 02:28:15;;;;;;;4.20;2.10;;;-3.30;99.90;;;;;;5078646;28;20041;-63
2024/01/09 02:30:41;;;;;;;6.68;2.72;;;-3.40;99.90;;;;;;5075446;28;20098;-63
2024/01/09 02:33:08;;;;;;;3.88;2.58;;;-3.40;99.90;;;;;;5083186;28;20044;-63
2024/01/09 02:35:34;;;;;;;3.65;1.75;;;-3.40;99.90;;;;;;5082097;28;20039;-63
2024/01/09 02:38:00;;;;;;;6.40;2.88;;;-3.40;99.90;;;;;;5082818;28;20032;-63
2024/01/09 02:40:26;;;;;;;2.85;1.55;;;-3.40;99.90;;;;;;5062226;28;20086;-63
2024/01/09 02:42:52;;;;;;;6.65;2.30;;;-3.40;99.90;;;;;;5110341;27;20043;-63
2024/01/09 02:45:17;;;;;;;6.28;2.58;;;-3.40;99.90;;;;;;5081771;28;20040;-63
2024/01/09 02:47:43;;;;;;;3.70;1.65;;;-3.40;99.90;;;;;;5079229;28;20039;-63
2024/01/09 02:50:09;;;;;;;3.50;2.00;;;-3.40;99.90;;;;;;5078771;28;20032;-63
2024/01/09 02:52:35;;;;;;;3.45;1.85;;;-3.50;99.90;;;;;;5079443;28;20044;-63
2024/01/09 02:55:00;;;;;;;3.72;2.00;;;-3.40;99.90;;;;;;5084312;28;20178;-63
2024/01/09 02:57:26;;;;;;;4.10;2.10;;;-3.50;99.90;;;;;;5076498;28;20032;-63
2024/01/09 02:59:51;;;;;;;4.10;1.88;;;-3.40;99.90;;;;;;5106052;27;22377;-63
2024/01/09 03:02:17;;;;;;;3.92;1.40;;;-3.50;99.90;;;;;;5074859;28;20049;-63
2024/01/09 03:04:43;;;;;;;4.70;2.53;;;-3.50;99.90;;;;;;5080029;28;20032;-63
2024/01/09 03:07:09;;;;;;;7.22;2.47;;;-3.50;99.90;;;;;;5081442;28;20500;-63
2024/01/09 03:09:35;;;;;;;3.55;2.10;;;-3.50;99.90;;;;;;5075806;28;20044;-63
2024/01/09 03:12:03;;;;;;;7.53;2.67;;;-3.50;99.90;;;;;;5075480;28;20492;-63
2024/01/09 03:14:29;;;;;;;2.65;1.45;;;-3.50;99.90;;;;;;5075015;28;20170;-63
2024/01/09 03:16:55;;;;;;;4.82;1.83;;;-3.50;99.90;;;;;;5078127;28;20119;-63
2024/01/09 03:19:20;;;;;;;3.75;2.00;;;-3.50;99.90;;;;;;5073743;28;20085;-63
2024/01/09 03:21:48;;;;;;;5.25;2.10;;;-3.50;99.90;;;;;;5076861;28;20043;-63
2024/01/09 03:24:14;;;;;;;7.70;2.00;;;-3.60;99.90;;;;;;5077907;28;20051;-62
2024/01/09 03:26:40;;;;;;;3.40;1.38;;;-3.60;99.90;;;;;;5077691;28;20043;-63
2024/01/09 03:29:06;;;;;;;3.67;1.88;;;-3.50;99.90;;;;;;5078065;28;20394;-63
2024/01/09 03:31:32;;;;;;;3.35;1.73;;;-3.60;99.90;;;;;;5075985;28;20032;-63
2024/01/09 03:33:57;;;;;;;3.75;1.85;;;-3.60;99.90;;;;;;5107085;27;20044;-63
2024/01/09 03:36:23;;;;;;;3.67;1.95;;;-3.60;99.90;;;;;;5075891;28;21721;-63
2024/01/09 03:38:50;;;;;;;4.88;1.73;;;-3.70;99.90;;;;;;5107804;27;20093;-63
2024/01/09 03:41:16;;;;;;;4.30;2.03;;;-3.60;99.90;;;;;;5061590;28;20146;-63
2024/01/09 03:43:42;;;;;;;3.50;1.77;;;-3.70;99.90;;;;;;5079373;28;20047;-63
2024/01/09 03:46:08;;;;;;;5.50;1.30;;;-3.70;99.90;;;;;;5075927;28;20055;-63
2024/01/09 03:48:33;;;;;;;5.55;2.20;;;-3.70;99.90;;;;;;5076989;28;20406;-63
2024/01/09 03:50:59;;;;;;;4.97;1.90;;;-3.70;99.90;;;;;;5076900;28;20541;-63
2024/01/09 03:53:25;;;;;;;2.70;1.30;;;-3.80;99.90;;;;;;5080128;28;20041;-63
2024/01/09 03:55:51;;;;;;;5.25;1.60;;;-3.80;99.90;;;;;;5080851;28;20039;-63
2024/01/09 03:58:16;;;;;;;2.88;1.35;;;-3.70;99.90;;;;;;5082493;28;20040;-63
2024/01/09 04:00:42;;;;;;;5.82;2.50;;;-3.80;99.90;;;;;;5079863;28;20032;-63
2024/01/09 04:03:07;;;;;;;3.95;2.10;;;-3.80;99.90;;;;;;5078229;28;21830;-63
2024/01/09 04:05:33;;;;;;;3.75;1.73;;;-3.80;99.90;;;;;;5080919;28;20036;-63
2024/01/09 04:07:59;;;;;;;3.50;1.60;;;-3.80;99.90;;;;;;5080075;28;20135;-63
2024/01/09 04:10:25;;;;;;;7.60;2.08;;;-3.80;99.90;;;;;;5065748;28;20046;-63
2024/01/09 04:12:50;;;;;;;5.90;1.48;;;-3.80;99.90;;;;;;5111214;27;20135;-63
2024/01/09 04:15:16;;;;;;;2.95;1.77;;;-3.90;99.90;;;;;;5082621;28;20451;-63
2024/01/09 04:17:42;;;;;;;3.95;1.75;;;-3.90;99.90;;;;;;5077189;28;20044;-63
2024/01/09 04:20:11;;;;;;;3.38;1.50;;;-3.90;99.90;;;;;;5080525;28;20068;-63
2024/01/09 04:22:37;;;;;;;2.75;1.55;;;-3.90;99.90;;;;;;5079695;28;20482;-63
2024/01/09 04:25:03;;;;;;;4.05;1.77;;;-3.90;99.90;;;;;;5079064;28;20077;-63
2024/01/09 04:27:29;;;;;;;5.45;1.75;;;-3.90;99.90;;;;;;5086479;28;20036;-63
2024/01/09 04:29:54;;;;;;;2.90;1.30;;;-3.90;99.90;;;;;;5077143;28;20044;-63
2024/01/09 04:32:20;;;;;;;3.75;2.13;;;-3.90;99.90;;;;;;5080550;28;20458;-63
2024/01/09 04:34:46;;;;;;;5.00;2.08;;;-3.90;99.90;;;;;;5081510;28;20522;-63
2024/01/09 04:37:12;;;;;;;4.80;1.88;;;-4.00;99.90;;;;;;5077401;28;20071;-63
2024/01/09 04:39:37;;;;;;;4.50;1.50;;;-4.00;99.90;;;;;;5081741;28;20452;-63
2024/01/09 04:42:03;;;;;;;3.50;1.70;;;-4.00;99.90;;;;;;5079413;28;20071;-63
2024/01/09 04:44:29;;;;;;;2.45;1.33;;;-4.00;99.90;;;;;;5080781;28;20120;-63
2024/01/09 04:46:55;;;;;;;3.10;1.40;;;-4.00;99.90;;;;;;5078323;28;20055;-63
2024/01/09 04:49:20;;;;;;;4.00;1.48;;;-4.00;99.90;;;;;;5109206;27;21684;-63
2024/01/09 04:51:46;;;;;;;3.50;1.58;;;-4.10;99.90;;;;;;5084594;28;20047;-63
2024/01/09 04:54:12;;;;;;;5.80;1.70;;;-4.00;99.90;;;;;;5078159;28;20046;-63
2024/01/09 04:56:37;;;;;;;2.90;1.60;;;-4.00;99.90;;;;;;5079667;28;20047;-63
2024/01/09 04:59:03;;;;;;;3.40;1.33;;;-4.00;99.90;;;;;;5077874;28;20066;-63
2024/01/09 05:01:29;;;;;;;5.20;1.83;;;-4.00;99.90;;;;;;5079549;28;20125;-63
2024/01/09 05:03:54;;;;;;;3.17;1.83;;;-4.10;99.90;;;;;;5082131;28;20044;-63
2024/01/09 05:06:21;;;;;;;3.03;1.67;;;-4.10;99.90;;;;;;5079452;28;20964;-63
2024/01/09 05:08:47;;;;;;;5.13;2.05;;;-4.10;99.90;;;;;;5078760;28;20036;-63
2024/01/09 05:11:13;;;;;;;4.93;1.48;;;-4.10;99.90;;;;;;5078984;28;20058;-63
2024/01/09 05:13:38;;;;;;;3.58;1.60;;;-4.20;99.90;;;;;;5070763;28;20036;-63
2024/01/09 05:16:05;;;;;;;3.35;2.00;;;-4.10;99.90;;;;;;5112880;27;20062;-63
2024/01/09 05:18:33;;;;;;;3.90;1.85;;;-4.20;99.90;;;;;;5080271;28;21707;-63
2024/01/09 05:20:59;;;;;;;3.60;1.60;;;-4.10;99.90;;;;;;5077631;28;20041;-63
2024/01/09 05:23:25;;;;;;;2.50;1.45;;;-4.20;99.90;;;;;;5077792;28;20059;-63
2024/01/09 05:25:51;;;;;;;3.60;1.70;;;-4.30;99.90;;;;;;5078746;28;20504;-63
2024/01/09 05:28:17;;;;;;;2.92;1.30;;;-4.20;99.90;;;;;;5078731;28;20040;-63
2024/01/09 05:30:43;;;;;;;3.78;1.48;;;-4.20;99.90;;;;;;5082965;28;20044;-63
2024/01/09 05:33:09;;;;;;;2.80;1.60;;;-4.20;99.90;;;;;;5078509;28;20052;-63
2024/01/09 05:35:34;;;;;;;3.30;1.85;;;-4.30;99.90;;;;;;5079831;28;20036;-63
2024/01/09 05:38:00;;;;;;;2.65;1.42;;;-4.30;99.90;;;;;;5081841;28;20043;-63
2024/01/09 05:40:26;;;;;;;3.63;1.33;;;-4.30;99.90;;;;;;5081242;28;20020;-63
2024/01/09 05:42:51;;;;;;;3.35;1.42;;;-4.30;99.90;;;;;;5082398;28;20040;-63
2024/01/09 05:45:17;;;;;;;4.65;2.00;;;-4.30;99.90;;;;;;5085342;28;20090;-63
2024/01/09 05:47:43;;;;;;;5.60;1.80;;;-4.20;99.90;;;;;;5068317;28;20068;-63
2024/01/09 05:50:09;;;;;;;3.28;1.60;;;-4.30;99.90;;;;;;5082025;28;20081;-63
2024/01/09 05:52:36;;;;;;;4.85;1.77;;;-4.30;99.90;;;;;;5074256;28;20051;-63
2024/01/09 05:55:05;;;;;;;6.65;2.30;;;-4.30;99.90;;;;;;5081423;28;20064;-63
2024/01/09 05:57:31;;;;;;;6.10;1.92;;;-4.30;99.90;;;;;;5076729;28;20069;-63
2024/01/09 05:59:57;;;;;;;3.55;1.92;;;-4.40;99.90;;;;;;5080921;28;20064;-62
2024/01/09 06:02:23;;;;;;;3.38;1.75;;;-4.30;99.90;;;;;;5084121;28;20073;-63
2024/01/09 06:04:49;;;;;;;3.75;2.00;;;-4.40;99.90;;;;;;5078635;28;20045;-63
2024/01/09 06:07:16;;;;;;;4.85;1.75;;;-4.40;99.90;;;;;;5081362;28;20037;-63
2024/01/09 06:09:43;;;;;;;3.08;1.60;;;-4.40;99.90;;;;;;5079145;28;20062;-63
2024/01/09 06:12:09;;;;;;;4.78;2.13;;;-4.50;99.90;;;;;;5084406;28;20054;-63
2024/01/09 06:14:34;;;;;;;6.35;1.55;;;-4.50;99.90;;;;;;5082702;28;20028;-63
2024/01/09 06:17:00;;;;;;;2.97;1.65;;;-4.40;99.90;;;;;;5082804;28;20069;-63
2024/01/09 06:19:26;;;;;;;3.13;1.67;;;-4.50;99.90;;;;;;5082671;28;20475;-63
2024/01/09 06:21:51;;;;;;;4.10;2.08;;;-4.50;99.90;;;;;;5075140;28;20095;-63
2024/01/09 06:24:17;;;;;;;4.80;1.50;;;-4.50;99.90;;;;;;5079695;28;20072;-63
2024/01/09 06:26:43;;;;;;;3.67;1.80;;;-4.50;99.90;;;;;;5080144;28;20036;-63
2024/01/09 06:29:09;;;;;;;8.45;1.65;;;-4.50;99.90;;;;;;5085060;28;20047;-63
2024/01/09 06:31:35;;;;;;;3.95;1.80;;;-4.60;99.90;;;;;;5078130;28;20052;-63
2024/01/09 06:34:00;;;;;;;3.63;1.60;;;-4.60;99.90;;;;;;5083487;28;20040;-63
2024/01/09 06:36:26;;;;;;;5.15;1.95;;;-4.50;99.90;;;;;;5079151;28;20060;-63
2024/01/09 06:38:52;;;;;;;5.47;2.63;;;-4.60;99.90;;;;;;5083980;28;20036;-63
2024/01/09 06:41:17;;;;;;;2.55;1.23;;;-4.60;99.90;;;;;;5063094;28;20059;-63
2024/01/09 06:43:43;;;;;;;4.85;2.35;;;-4.60;99.90;;;;;;5083542;28;20039;-64
2024/01/09 06:46:09;;;;;;;4.03;2.30;;;-4.60;99.90;;;;;;5075186;28;20094;-63
2024/01/09 06:48:35;;;;;;;5.35;2.15;;;-4.50;99.90;;;;;;5079488;28;20060;-63
2024/01/09 06:51:01;;;;;;;3.55;1.70;;;-4.60;99.90;;;;;;5083629;28;20035;-62
2024/01/09 06:53:27;;;;;;;2.88;1.50;;;-4.60;99.90;;;;;;5079237;28;20474;-63
2024/01/09 06:55:52;;;;;;;4.50;1.95;;;-4.60;99.90;;;;;;5082892;28;20047;-63
2024/01/09 06:58:18;;;;;;;4.20;1.73;;;-4.60;99.90;;;;;;5081417;28;20132;-63
2024/01/09 07:00:44;;;;;;;3.58;1.77;;;-4.60;99.90;;;;;;5100875;27;20047;-63
2024/01/09 07:03:10;;;;;;;2.70;1.38;;;-4.60;99.90;;;;;;5107314;27;20086;-62
2024/01/09 07:05:36;;;;;;;4.00;1.98;;;-4.60;99.90;;;;;;5076060;28;20486;-63
2024/01/09 07:08:03;;;;;;;5.57;1.77;;;-4.20;99.90;;;;;;5073158;28;20046;-62
2024/01/09 07:10:29;;;;;;;2.35;1.48;;;-4.70;99.90;;;;;;5075290;28;20073;-63
2024/01/09 07:12:55;;;;;;;3.83;2.33;;;-4.70;99.90;;;;;;5078477;28;20047;-63
2024/01/09 07:15:21;;;;;;;4.18;1.90;;;-4.80;99.90;;;;;;5079975;28;20119;-63
2024/01/09 07:17:47;;;;;;;6.68;1.77;;;-4.80;99.90;;;;;;5078327;28;20131;-63
2024/01/09 07:20:12;;;;;;;3.55;1.73;;;-4.80;99.90;;;;;;5077193;28;20044;-63
2024/01/09 07:22:38;;;;;;;4.60;2.20;;;-4.90;99.90;;;;;;5077160;28;20090;-63
2024/01/09 07:25:04;;;;;;;5.00;1.90;;;-4.80;99.90;;;;;;5081443;28;20032;-63
2024/01/09 07:27:30;;;;;;;3.65;2.20;;;-4.80;99.90;;;;;;5080884;28;20103;-63
2024/01/09 07:29:56;;;;;;;3.90;1.90;;;-4.80;99.90;;;;;;5103289;27;20534;-63
2024/01/09 07:32:21;;;;;;;4.10;1.75;;;-4.80;99.90;;;;;;5084824;28;20147;-63
2024/01/09 07:34:50;;;;;;;2.63;1.60;;;-4.80;99.90;;;;;;5083642;28;20119;-63
2024/01/09 07:37:16;;;;;;;4.22;1.80;;;-4.80;99.90;;;;;;5084934;28;20028;-63
2024/01/09 07:39:41;;;;;;;5.53;1.85;;;-5.00;99.90;;;;;;5081330;28;20044;-63
2024/01/09 07:42:13;;;;;;;3.65;1.45;;;-4.90;99.90;;;;;;5066600;28;20919;-63
2024/01/09 07:44:39;;;;;;;4.88;2.25;;;-4.80;99.90;;;;;;5075966;28;20083;-63
2024/01/09 07:47:07;;;;;;;4.47;1.73;;;-4.90;99.90;;;;;;5083723;28;20043;-63
2024/01/09 07:49:33;;;;;;;4.55;1.80;;;-4.90;99.90;;;;;;5078536;28;20058;-63
2024/01/09 07:51:59;;;;;;;4.28;1.60;;;-4.90;99.90;;;;;;5078778;28;20121;-63
2024/01/09 07:54:25;;;;;;;4.72;2.13;;;-4.80;99.90;;;;;;5084739;28;20097;-63
2024/01/09 07:56:51;;;;;;;4.57;2.03;;;-4.90;99.90;;;;;;5109877;27;20041;-63
2024/01/09 07:59:16;;;;;;;4.97;2.05;;;-4.90;99.90;;;;;;5079162;28;20075;-63
2024/01/09 08:01:42;;;;;;;4.47;1.88;;;-4.90;99.90;;;;;;5075954;28;20135;-63
2024/01/09 08:04:08;;;;;;;2.70;1.20;;;-4.90;99.90;;;;;;5081687;28;20131;-63
2024/01/09 08:06:34;;;;;;;3.72;1.52;;;-4.80;99.90;;;;;;5078001;28;20051;-63
2024/01/09 08:09:00;;;;;;;3.90;2.10;;;-4.80;99.90;;;;;;5079510;28;20037;-63
2024/01/09 08:11:25;;;;;;;3.88;1.70;;;-4.80;99.90;;;;;;5078236;28;20414;-63
2024/01/09 08:13:51;;;;;;;5.35;2.13;;;-4.70;99.90;;;;;;5076113;28;20047;-63
2024/01/09 08:16:17;;;;;;;3.50;1.63;;;-4.80;99.90;;;;;;5081812;28;20032;-63
2024/01/09 08:18:43;;;;;;;3.67;1.73;;;-4.80;99.90;;;;;;5079485;28;20592;-63
2024/01/09 08:21:08;;;;;;;3.38;1.35;;;-4.80;99.90;;;;;;5085643;28;20038;-63
2024/01/09 08:23:35;;;;;;;3.85;2.10;;;-4.80;99.90;;;;;;5075635;28;20117;-63
2024/01/09 08:26:00;;;;;;;3.10;1.52;;;-4.70;99.90;;;;;;5080165;28;20028;-63
2024/01/09 08:28:26;;;;;;;3.97;1.80;;;-4.70;99.90;;;;;;5077616;28;20037;-63
2024/01/09 08:30:52;;;;;;;4.68;2.20;;;-4.70;99.90;;;;;;5077899;28;20066;-63
2024/01/09 08:33:18;;;;;;;3.58;2.10;;;-4.70;99.90;;;;;;5077723;28;20054;-63
2024/01/09 08:35:50;;;;;;;5.05;1.58;;;-4.70;99.90;;;;;;5078612;28;20182;-63
2024/01/09 08:38:17;;;;;;;4.28;1.95;;;-4.60;99.90;;;;;;5112226;27;20047;-63
2024/01/09 08:40:44;;;;;;;5.75;1.75;;;-4.70;99.90;;;;;;5076289;28;20048;-63
2024/01/09 08:43:09;;;;;;;3.63;1.77;;;-4.60;99.90;;;;;;5081152;28;20160;-63
2024/01/09 08:45:36;;;;;;;3.60;1.70;;;-4.50;99.90;;;;;;5078220;28;20558;-63
2024/01/09 08:48:01;;;;;;;4.53;2.33;;;-4.50;99.90;;;;;;5083377;28;20040;-63
2024/01/09 08:50:27;;;;;;;7.97;2.60;;;-4.50;99.90;;;;;;5078464;28;20039;-63
2024/01/09 08:52:54;;;;;;;3.05;1.70;;;-4.40;99.90;;;;;;5071473;28;20044;-63
2024/01/09 08:55:20;;;;;;;4.57;2.30;;;-4.40;99.90;;;;;;5075957;28;20145;-63
2024/01/09 08:57:46;;;;;;;3.28;1.50;;;-4.40;99.90;;;;;;5078354;28;20123;-63
2024/01/09 09:00:13;;;;;;;3.55;1.55;;;-4.30;99.90;;;;;;5077404;28;20055;-63
2024/01/09 09:02:39;;;;;;;4.97;1.63;;;-4.30;99.90;;;;;;5078685;28;20179;-63
2024/01/09 09:05:05;;;;;;;4.03;1.52;;;-4.30;99.90;;;;;;5082841;28;20044;-63
2024/01/09 09:07:30;;;;;;;3.67;1.90;;;-4.20;99.90;;;;;;5077823;28;20035;-63
2024/01/09 09:09:57;;;;;;;2.28;1.40;;;-4.20;99.90;;;;;;5080094;28;20032;-63
2024/01/09 09:12:23;;;;;;;2.38;1.52;;;-4.20;99.90;;;;;;5078752;28;20752;-63
2024/01/09 09:14:49;;;;;;;3.00;1.42;;;-4.10;99.90;;;;;;5079014;28;20059;-63
2024/01/09 09:17:16;;;;;;;7.55;1.70;;;-4.00;99.90;;;;;;5087071;28;20167;-63
2024/01/09 09:19:42;;;;;;;3.15;1.70;;;-4.00;99.90;;;;;;5076431;28;20032;-63
2024/01/09 09:22:07;;;;;;;3.38;1.60;;;-4.00;99.90;;;;;;5085484;28;20510;-63
2024/01/09 09:24:33;;;;;;;3.75;2.72;;;-3.90;99.90;;;;;;5081300;28;20040;-63
2024/01/09 09:26:59;;;;;;;3.22;1.60;;;-3.90;99.90;;;;;;5078063;28;20159;-63
2024/01/09 09:29:26;;;;;;;4.22;1.60;;;-3.80;99.90;;;;;;5080723;28;20032;-63
2024/01/09 09:31:52;;;;;;;3.13;1.58;;;-3.80;99.90;;;;;;5108635;27;20036;-63
2024/01/09 09:34:18;;;;;;;3.20;1.38;;;-3.70;99.90;;;;;;5083010;28;20479;-63
2024/01/09 09:36:43;;;;;;;4.22;2.08;;;-3.70;99.90;;;;;;5081784;28;20038;-63
2024/01/09 09:39:10;;;;;;;3.70;1.67;;;-3.70;99.90;;;;;;5082093;28;21166;-63
2024/01/09 09:41:36;;;;;;;4.40;1.48;;;-3.60;99.90;;;;;;5079435;28;20032;-63
2024/01/09 09:44:03;;;;;;;3.88;1.80;;;-3.60;99.90;;;;;;5077248;28;20648;-63
2024/01/09 09:46:31;;;;;;;2.80;1.30;;;-3.50;99.90;;;;;;5079823;28;20072;-63
2024/01/09 09:48:57;;;;;;;6.43;1.60;;;-3.20;99.90;;;;;;5078129;28;20044;-63
2024/01/09 09:51:24;;;;;;;3.70;1.58;;;-3.40;99.90;;;;;;5082781;28;20112;-63
2024/01/09 09:53:52;;;;;;;3.20;2.05;;;-3.40;99.90;;;;;;5078769;28;20143;-63
2024/01/09 09:56:18;;;;;;;2.80;1.10;;;-3.30;99.90;;;;;;5080441;28;20681;-63
2024/01/09 09:58:44;;;;;;;5.80;1.65;;;-3.30;99.90;;;;;;5079636;28;20033;-63
2024/01/09 10:01:13;;;;;;;4.25;1.48;;;-3.20;99.90;;;;;;5076887;28;20047;-63
2024/01/09 10:03:57;;;;;;;2.47;1.42;;;-3.20;99.90;;;;;;5081592;28;20047;-63
2024/01/09 10:06:27;;;;;;;4.70;2.22;;;-3.10;99.90;;;;;;5108452;27;20040;-63
2024/01/09 10:08:54;;;;;;;4.93;1.40;;;-3.10;99.90;;;;;;5077754;28;20159;-63
2024/01/09 10:11:20;;;;;;;2.92;1.50;;;-3.00;99.90;;;;;;5076928;28;20059;-63
2024/01/09 10:13:46;;;;;;;2.13;1.10;;;-3.00;99.90;;;;;;5082359;28;20036;-63
2024/01/09 10:16:12;;;;;;;3.33;1.30;;;-2.90;99.90;;;;;;5074463;28;20483;-63
2024/01/09 10:18:39;;;;;;;2.88;1.10;;;-3.00;99.90;;;;;;5111391;27;20070;-63
2024/01/09 10:21:06;;;;;;;3.25;1.13;;;-2.90;99.90;;;;;;5108277;27;20115;-63
2024/01/09 10:23:35;;;;;;;2.55;1.10;;;-2.90;99.90;;;;;;5072650;28;20468;-63
2024/01/09 10:26:02;;;;;;;3.25;1.10;;;-2.80;99.90;;;;;;5076244;28;20482;-63
2024/01/09 10:28:28;;;;;;;2.72;1.65;;;-2.70;99.90;;;;;;5108643;27;20048;-63
2024/01/09 10:30:54;;;;;;;3.03;1.23;;;-2.70;99.90;;;;;;5108911;27;20054;-63
2024/01/09 10:33:20;;;;;;;3.88;1.17;;;-2.70;99.90;;;;;;5080819;28;20421;-63
2024/01/09 10:35:46;;;;;;;6.43;1.45;;;-2.50;99.90;;;;;;5111745;27;20032;-63
2024/01/09 10:38:12;;;;;;;4.95;1.35;;;-2.60;99.90;;;;;;5071611;28;20055;-63
2024/01/09 10:40:38;;;;;;;3.22;1.10;;;-2.50;99.90;;;;;;5079526;28;20152;-63
2024/01/09 10:43:04;;;;;;;2.47;1.38;;;-2.40;99.90;;;;;;5079212;28;20110;-63
2024/01/09 10:45:33;;;;;;;2.13;1.27;;;-2.40;99.90;;;;;;5079239;28;20401;-63
2024/01/09 10:47:59;;;;;;;3.38;1.30;;;-2.40;99.90;;;;;;5090064;28;20119;-63
2024/01/09 10:50:25;;;;;;;3.55;1.77;;;-2.30;99.90;;;;;;5076033;28;20049;-63
2024/01/09 10:52:52;;;;;;;3.22;1.55;;;-2.20;99.90;;;;;;5083427;28;20390;-63
2024/01/09 10:55:22;;;;;;;2.30;1.17;;;-2.20;99.90;;;;;;5078890;28;20497;-63
2024/01/09 10:57:49;;;;;;;3.40;1.13;;;-2.10;99.90;;;;;;5076567;28;20067;-63
2024/01/09 11:00:16;;;;;;;3.25;1.33;;;-2.10;99.90;;;;;;5075476;28;20048;-63
2024/01/09 11:02:42;;;;;;;3.42;1.63;;;-2.00;99.90;;;;;;5081924;28;20437;-63
2024/01/09 11:05:10;;;;;;;4.38;1.23;;;-2.00;99.90;;;;;;5080724;28;20048;-64
2024/01/09 11:07:37;;;;;;;4.07;1.60;;;-2.00;99.90;;;;;;5083341;28;21839;-63
2024/01/09 11:10:04;;;;;;;2.67;1.50;;;-1.90;99.90;;;;;;5085448;28;20040;-63
2024/01/09 11:12:41;;;;;;;2.17;1.20;;;-1.90;99.90;;;;;;5079735;28;20040;-63
2024/01/09 11:15:15;;;;;;;1.88;0.93;;;-1.80;99.90;;;;;;5078824;28;20072;-63
2024/01/09 11:17:43;;;;;;;6.78;1.75;;;-1.80;99.90;;;;;;5108113;27;20139;-63
2024/01/09 11:20:11;;;;;;;2.92;1.38;;;-1.70;99.90;;;;;;5083100;28;20081;-63
2024/01/09 11:22:37;;;;;;;2.10;1.40;;;-1.60;99.90;;;;;;5080903;28;20466;-62
2024/01/09 11:25:09;;;;;;;2.90;1.45;;;-1.60;99.90;;;;;;5082762;28;20032;-63
2024/01/09 11:27:42;;;;;;;2.20;1.20;;;-1.50;99.90;;;;;;5079137;28;20051;-63
2024/01/09 11:30:10;;;;;;;2.50;1.50;;;-1.50;99.90;;;;;;5077861;28;20052;-63
2024/01/09 11:32:37;;;;;;;1.92;1.10;;;-1.30;99.90;;;;;;5080191;28;20075;-63
2024/01/09 11:35:13;;;;;;;3.05;1.25;;;-1.30;99.90;;;;;;5077897;28;20042;-63
2024/01/09 11:37:47;;;;;;;2.13;1.38;;;-1.20;99.90;;;;;;5077290;28;20036;-63
2024/01/09 11:40:13;;;;;;;2.45;1.52;;;-1.10;99.90;;;;;;5112366;27;20078;-63
2024/01/09 11:42:43;;;;;;;2.97;1.05;;;-1.00;99.80;;;;;;5079106;28;20093;-63
2024/01/09 11:45:12;;;;;;;2.33;0.90;;;-1.00;99.80;;;;;;5088211;28;20126;-63
2024/01/09 11:47:39;;;;;;;2.03;1.00;;;-0.90;99.50;;;;;;5106985;27;20127;-63
2024/01/09 11:50:09;;;;;;;3.50;1.27;;;-0.90;98.30;;;;;;5077667;28;20048;-63
2024/01/09 11:52:36;;;;;;;2.63;1.25;;;-0.80;99.40;;;;;;5116989;27;20055;-63
2024/01/09 11:55:07;;;;;;;3.50;1.10;;;-0.80;99.50;;;;;;5078024;28;20044;-63
2024/01/09 11:57:37;;;;;;;3.42;1.40;;;-0.80;99.00;;;;;;5080276;28;20047;-63
2024/01/09 12:00:04;;;;;;;2.08;0.90;;;-0.70;99.10;;;;;;5077056;28;20081;-63
2024/01/09 12:02:33;;;;;;;1.75;0.80;;;-0.70;97.90;;;;;;5080523;28;20118;-63
2024/01/09 12:05:08;;;;;;;2.45;1.25;;;-0.70;97.90;;;;;;5080030;28;20394;-63
2024/01/09 12:07:37;;;;;;;2.55;1.27;;;-0.70;97.20;;;;;;5077710;28;20048;-63
2024/01/09 12:10:04;;;;;;;3.35;1.63;;;-0.70;97.40;;;;;;5078493;28;20046;-63
2024/01/09 12:12:30;;;;;;;2.13;0.70;;;-0.60;97.90;;;;;;5076164;28;20502;-63
2024/01/09 12:15:00;;;;;;;2.00;0.95;;;-0.60;98.20;;;;;;5080486;28;20067;-63
2024/01/09 12:17:33;;;;;;;2.40;1.67;;;-0.50;97.50;;;;;;5078870;28;20134;-63
2024/01/09 12:20:00;;;;;;;1.75;0.98;;;-0.50;97.40;;;;;;5078204;28;20059;-63
2024/01/09 12:22:26;;;;;;;2.97;1.45;;;-0.60;96.70;;;;;;5078732;28;20071;-63
2024/01/09 12:24:54;;;;;;;1.85;1.20;;;-0.50;97.70;;;;;;5079654;28;20043;-63
2024/01/09 12:27:21;;;;;;;2.47;1.30;;;-0.50;97.80;;;;;;5080258;28;20064;-63
2024/01/09 12:29:48;;;;;;;3.15;1.13;;;-0.40;97.40;;;;;;5094222;28;20050;-63
2024/01/09 12:32:15;;;;;;;3.67;1.50;;;-0.50;97.00;;;;;;5113651;27;20075;-63
2024/01/09 12:34:41;;;;;;;1.60;0.98;;;-0.50;97.50;;;;;;5111143;27;20044;-63
2024/01/09 12:37:08;;;;;;;2.65;1.85;;;-0.50;97.40;;;;;;5099659;28;20044;-63
2024/01/09 12:39:35;;;;;;;6.15;1.48;;;-0.50;97.30;;;;;;5079648;28;20040;-63
2024/01/09 12:42:19;;;;;;;2.13;1.00;;;-0.50;97.30;;;;;;5077753;28;20398;-63
2024/01/09 12:44:45;;;;;;;1.92;1.00;;;-0.40;97.10;;;;;;5075017;28;20047;-63